Time;durP1;ratioP1;P1;durP2;ratioP2;P2;SDS_P1;SDS_P2;PMS_P1;PMS_P2;Temp;Humidity;BMP_temperature;BMP_pressure;BME280_temperature;BME280_humidity;BME280_pressure;Samples;Min_cycle;Max_cycle;Signal;HPM_P1;HPM_P2
2023/08/02 00:01:47;;;;;;;3.20;1.20;;;;;;;14.21;100.00;99666.72;4988890;28;20261;-46
2023/08/02 00:04:13;;;;;;;4.95;1.40;;;;;;;14.19;100.00;99661.44;4988902;28;20562;-44
2023/08/02 00:06:39;;;;;;;5.90;1.60;;;;;;;14.18;100.00;99666.94;4989203;28;20224;-44
2023/08/02 00:09:04;;;;;;;3.25;1.40;;;;;;;14.10;100.00;99669.31;4988922;28;20180;-44
2023/08/02 00:11:30;;;;;;;5.25;1.48;;;;;;;14.10;100.00;99663.94;4989209;28;20193;-45
2023/08/02 00:13:55;;;;;;;5.82;1.63;;;;;;;14.13;100.00;99658.34;4988843;28;20188;-45
2023/08/02 00:16:21;;;;;;;3.95;1.73;;;;;;;14.11;100.00;99671.91;4988422;28;20201;-41
2023/08/02 00:18:46;;;;;;;3.83;1.73;;;;;;;14.08;100.00;99664.06;4987871;28;20200;-45
2023/08/02 00:21:12;;;;;;;4.05;1.67;;;;;;;14.04;100.00;99669.75;4989229;28;20173;-46
2023/08/02 00:23:37;;;;;;;5.88;1.70;;;;;;;14.05;100.00;99666.09;4986301;28;20259;-43
2023/08/02 00:26:03;;;;;;;4.97;1.90;;;;;;;14.00;100.00;99669.97;4988761;28;20188;-46
2023/08/02 00:28:29;;;;;;;6.28;1.77;;;;;;;14.00;100.00;99672.66;4989331;28;20173;-46
2023/08/02 00:30:54;;;;;;;5.15;2.13;;;;;;;14.00;100.00;99675.38;4988189;28;20185;-45
2023/08/02 00:33:20;;;;;;;3.58;1.90;;;;;;;14.01;100.00;99676.22;4990605;28;20640;-44
2023/08/02 00:35:46;;;;;;;4.40;2.20;;;;;;;14.08;100.00;99684.72;4987402;28;20228;-46
2023/08/02 00:38:13;;;;;;;2.85;2.10;;;;;;;13.98;100.00;99677.31;4987349;28;20205;-45
2023/08/02 00:40:38;;;;;;;3.58;2.08;;;;;;;14.06;100.00;99682.16;4988431;28;20178;-43
2023/08/02 00:43:04;;;;;;;5.18;2.40;;;;;;;13.98;100.00;99688.06;4989236;28;20227;-45
2023/08/02 00:45:30;;;;;;;4.72;2.20;;;;;;;13.99;100.00;99697.91;4988276;28;20272;-43
2023/08/02 00:47:57;;;;;;;3.65;2.08;;;;;;;14.01;100.00;99695.06;4988983;28;20189;-45
2023/08/02 00:50:26;;;;;;;3.63;2.00;;;;;;;13.99;100.00;99695.19;4988391;28;20181;-44
2023/08/02 00:52:51;;;;;;;4.70;2.33;;;;;;;13.98;100.00;99701.53;4988922;28;20182;-44
2023/08/02 00:55:17;;;;;;;4.38;1.88;;;;;;;13.95;100.00;99699.06;4987233;28;20165;-44
2023/08/02 00:57:42;;;;;;;4.85;1.85;;;;;;;14.03;100.00;99701.22;4988126;28;20571;-45
2023/08/02 01:00:08;;;;;;;5.15;2.30;;;;;;;13.97;100.00;99702.53;4988183;28;20174;-43
2023/08/02 01:02:34;;;;;;;3.38;1.88;;;;;;;13.97;100.00;99705.22;4988831;28;20185;-44
2023/08/02 01:05:00;;;;;;;4.45;1.70;;;;;;;13.93;100.00;99701.00;5003921;28;20220;-43
2023/08/02 01:07:49;;;;;;;2.95;1.60;;;;;;;13.91;100.00;99710.16;4991775;28;20255;-44
2023/08/02 01:10:32;;;;;;;4.68;2.30;;;;;;;13.93;100.00;99708.22;4992179;28;20197;-43
2023/08/02 01:13:03;;;;;;;2.35;1.83;;;;;;;13.94;100.00;99705.41;4991110;28;20283;-42
2023/08/02 01:15:28;;;;;;;2.85;1.77;;;;;;;13.94;100.00;99700.03;4991308;28;20217;-43
2023/08/02 01:17:55;;;;;;;5.65;1.98;;;;;;;14.00;100.00;99707.69;4990445;28;20228;-44
2023/08/02 01:20:21;;;;;;;4.30;2.53;;;;;;;14.00;100.00;99704.13;4990868;28;20633;-44
2023/08/02 01:22:46;;;;;;;4.00;2.10;;;;;;;13.97;100.00;99702.53;4993010;28;20213;-44
2023/08/02 01:25:12;;;;;;;4.47;2.05;;;;;;;14.00;100.00;99696.91;4994646;28;20193;-44
2023/08/02 01:27:50;;;;;;;4.18;2.40;;;;;;;13.98;100.00;99698.84;4992290;28;20205;-45
2023/08/02 01:30:19;;;;;;;7.47;2.75;;;;;;;14.07;100.00;99693.78;4991734;28;20244;-44
2023/08/02 01:32:45;;;;;;;2.58;2.30;;;;;;;14.04;100.00;99702.94;4990001;28;20182;-44
2023/08/02 01:35:11;;;;;;;4.43;3.15;;;;;;;14.02;100.00;99708.44;4990936;28;20181;-44
2023/08/02 01:37:38;;;;;;;5.10;3.63;;;;;;;13.97;100.00;99702.53;4992052;28;20759;-46
2023/08/02 01:40:04;;;;;;;3.42;3.10;;;;;;;13.98;100.00;99693.47;4985418;28;20205;-45
2023/08/02 01:42:30;;;;;;;7.57;3.78;;;;;;;13.98;100.00;99692.59;4994257;28;20275;-45
2023/08/02 01:44:55;;;;;;;3.50;3.20;;;;;;;14.02;100.00;99704.88;4983193;28;20660;-43
2023/08/02 01:47:21;;;;;;;6.35;3.80;;;;;;;13.98;100.00;99701.53;4990328;28;20216;-44
2023/08/02 01:49:46;;;;;;;7.35;4.22;;;;;;;13.97;100.00;99699.81;4989528;28;20356;-43
2023/08/02 01:52:12;;;;;;;5.63;4.18;;;;;;;13.91;100.00;99697.56;5007152;28;20178;-44
2023/08/02 01:54:37;;;;;;;7.07;4.13;;;;;;;13.92;100.00;99696.56;4990513;28;20185;-44
2023/08/02 01:57:03;;;;;;;5.65;4.40;;;;;;;13.94;100.00;99707.25;4989394;28;20304;-44
2023/08/02 01:59:29;;;;;;;9.27;4.88;;;;;;;13.96;100.00;99706.16;5006506;28;20603;-44
2023/08/02 02:01:54;;;;;;;5.53;4.13;;;;;;;13.97;100.00;99702.53;4989594;28;20296;-45
2023/08/02 02:04:20;;;;;;;6.63;4.60;;;;;;;13.99;100.00;99710.47;4988851;28;20273;-43
2023/08/02 02:06:45;;;;;;;6.55;5.00;;;;;;;13.97;100.00;99716.00;4991882;28;20280;-43
2023/08/02 02:09:11;;;;;;;5.53;5.03;;;;;;;13.98;100.00;99725.78;4990894;28;20251;-44
2023/08/02 02:11:36;;;;;;;8.50;6.03;;;;;;;14.00;100.00;99714.91;4993101;28;20209;-43
2023/08/02 02:14:23;;;;;;;5.88;5.38;;;;;;;13.99;100.00;99722.13;4989897;28;20178;-45
2023/08/02 02:17:03;;;;;;;9.40;5.63;;;;;;;14.04;100.00;99718.22;4995740;28;20264;-44
2023/08/02 02:19:52;;;;;;;6.03;4.95;;;;;;;14.00;100.00;99722.97;4983996;28;20279;-43
2023/08/02 02:22:35;;;;;;;9.10;5.20;;;;;;;14.00;100.00;99712.22;4983388;28;20529;-44
2023/08/02 02:25:30;;;;;;;7.18;5.38;;;;;;;13.93;100.00;99719.00;5003250;28;20210;-44
2023/08/02 02:28:04;;;;;;;9.18;5.40;;;;;;;13.89;100.00;99726.44;4896401;29;20212;-44
2023/08/02 02:30:59;;;;;;;7.65;4.47;;;;;;;13.88;100.00;99724.69;4971357;28;20201;-44
2023/08/02 02:33:33;;;;;;;8.98;5.15;;;;;;;13.88;100.00;99730.06;4975685;28;20186;-45
2023/08/02 02:36:11;;;;;;;5.80;5.30;;;;;;;13.97;100.00;99721.38;4989266;28;20654;-43
2023/08/02 02:39:23;;;;;;;8.55;6.07;;;;;;;13.90;100.00;99725.44;4987335;28;20197;-43
2023/08/02 02:41:51;;;;;;;7.00;5.95;;;;;;;13.94;100.00;99731.47;4963571;28;20603;-45
2023/08/02 02:44:16;;;;;;;11.98;7.40;;;;;;;13.91;100.00;99720.94;4989325;28;20271;-44
2023/08/02 02:46:42;;;;;;;9.07;8.15;;;;;;;13.92;100.00;99714.56;4988782;28;20625;-44
2023/08/02 02:49:07;;;;;;;8.38;6.57;;;;;;;13.98;100.00;99717.69;5004211;28;20188;-40
2023/08/02 02:51:33;;;;;;;9.20;8.32;;;;;;;13.90;100.00;99720.06;4990219;28;20170;-41
2023/08/02 02:53:58;;;;;;;9.10;7.50;;;;;;;13.93;100.00;99711.78;4989211;28;20182;-41
2023/08/02 02:56:24;;;;;;;8.25;7.55;;;;;;;13.93;100.00;99717.16;5004119;28;20525;-40
2023/08/02 02:58:49;;;;;;;10.23;7.15;;;;;;;13.95;100.00;99730.50;4991902;28;20616;-41
2023/08/02 03:01:15;;;;;;;7.45;6.85;;;;;;;14.02;100.00;99727.28;5004398;28;20248;-43
2023/08/02 03:03:41;;;;;;;11.57;8.85;;;;;;;13.96;100.00;99724.16;4989461;28;20217;-42
2023/08/02 03:06:06;;;;;;;10.63;9.43;;;;;;;13.99;100.00;99726.63;4989324;28;20193;-42
2023/08/02 03:08:32;;;;;;;9.40;8.50;;;;;;;13.95;100.00;99715.22;4990187;28;20891;-41
2023/08/02 03:10:57;;;;;;;9.60;8.20;;;;;;;13.98;100.00;99715.00;4989754;28;20747;-44
2023/08/02 03:13:23;;;;;;;7.65;6.85;;;;;;;13.98;100.00;99709.63;4989262;28;20664;-40
2023/08/02 03:15:49;;;;;;;10.85;8.77;;;;;;;13.98;100.00;99714.16;4981843;28;20201;-41
2023/08/02 03:18:22;;;;;;;9.40;8.43;;;;;;;13.94;100.00;99702.72;4988982;28;20247;-41
2023/08/02 03:20:48;;;;;;;11.02;9.20;;;;;;;13.90;100.00;99694.97;4987481;28;20267;-41
2023/08/02 03:23:13;;;;;;;9.52;8.35;;;;;;;13.92;100.00;99709.19;4992320;28;20177;-40
2023/08/02 03:25:43;;;;;;;8.77;7.97;;;;;;;13.90;100.00;99705.75;4988775;28;20216;-41
2023/08/02 03:28:09;;;;;;;9.27;7.63;;;;;;;13.86;100.00;99710.47;5004406;28;20221;-40
2023/08/02 03:30:35;;;;;;;7.32;6.63;;;;;;;13.97;100.00;99712.41;4988468;28;20626;-41
2023/08/02 03:33:01;;;;;;;8.50;7.65;;;;;;;13.86;100.00;99707.78;4988158;28;20190;-41
2023/08/02 03:35:26;;;;;;;10.98;7.63;;;;;;;13.85;100.00;99703.38;4988445;28;20181;-41
2023/08/02 03:37:52;;;;;;;8.45;7.45;;;;;;;13.87;100.00;99704.13;5001870;28;20195;-40
2023/08/02 03:40:19;;;;;;;8.68;7.07;;;;;;;13.88;100.00;99708.53;4988686;28;20208;-41
2023/08/02 03:42:44;;;;;;;8.25;7.45;;;;;;;13.89;100.00;99714.81;4988003;28;20544;-41
2023/08/02 03:45:10;;;;;;;8.10;7.30;;;;;;;13.96;100.00;99708.84;4988494;28;20243;-41
2023/08/02 03:47:35;;;;;;;7.57;6.95;;;;;;;13.99;100.00;99711.34;4988014;28;20263;-41
2023/08/02 03:50:01;;;;;;;11.85;8.30;;;;;;;13.98;100.00;99715.00;4987801;28;20566;-41
2023/08/02 03:52:26;;;;;;;8.90;7.88;;;;;;;14.00;100.00;99707.69;4989238;28;20184;-39
2023/08/02 03:54:52;;;;;;;9.68;8.88;;;;;;;13.90;100.00;99706.59;4990901;28;20529;-42
2023/08/02 03:57:18;;;;;;;8.98;8.18;;;;;;;14.00;100.00;99713.06;4988799;28;20667;-41
2023/08/02 03:59:44;;;;;;;11.13;9.05;;;;;;;13.98;100.00;99714.16;4988731;28;20945;-40
2023/08/02 04:02:09;;;;;;;9.80;8.63;;;;;;;14.07;100.00;99712.63;5003780;28;20185;-41
2023/08/02 04:04:34;;;;;;;9.57;7.97;;;;;;;14.06;100.00;99717.16;4988316;28;20236;-41
2023/08/02 04:07:00;;;;;;;9.95;8.95;;;;;;;14.04;100.00;99713.72;4988492;28;20216;-40
2023/08/02 04:09:25;;;;;;;10.77;9.07;;;;;;;14.07;100.00;99709.94;4988846;28;20165;-40
2023/08/02 04:11:51;;;;;;;9.25;8.20;;;;;;;14.13;100.00;99717.59;4987735;28;20714;-41
2023/08/02 04:14:17;;;;;;;9.95;7.95;;;;;;;14.18;100.00;99718.13;4988481;28;20192;-40
2023/08/02 04:16:43;;;;;;;10.75;9.02;;;;;;;14.14;100.00;99722.00;4988074;28;20572;-39
2023/08/02 04:19:09;;;;;;;10.40;9.35;;;;;;;14.12;100.00;99710.47;4988734;28;20730;-41
2023/08/02 04:21:34;;;;;;;11.82;10.60;;;;;;;14.13;100.00;99715.75;4992044;28;20181;-40
2023/08/02 04:24:00;;;;;;;11.35;9.68;;;;;;;14.16;100.00;99726.31;4988258;28;20248;-41
2023/08/02 04:26:31;;;;;;;15.25;10.15;;;;;;;14.19;100.00;99719.84;4988990;28;20527;-40
2023/08/02 04:28:57;;;;;;;13.45;10.25;;;;;;;14.24;100.00;99731.16;4988833;28;20231;-40
2023/08/02 04:31:22;;;;;;;10.43;9.27;;;;;;;14.27;100.00;99725.53;4988918;28;20599;-41
2023/08/02 04:33:48;;;;;;;10.73;9.63;;;;;;;14.32;100.00;99720.72;4993182;28;20259;-39
2023/08/02 04:36:13;;;;;;;13.45;10.55;;;;;;;14.29;100.00;99720.91;4987939;28;20239;-40
2023/08/02 04:38:39;;;;;;;10.60;9.60;;;;;;;14.36;100.00;99724.03;4977328;28;20221;-40
2023/08/02 04:41:05;;;;;;;14.00;11.13;;;;;;;14.35;100.00;99722.31;4991215;28;20180;-40
2023/08/02 04:43:30;;;;;;;11.57;10.27;;;;;;;14.37;100.00;99731.16;4992253;28;20200;-41
2023/08/02 04:45:56;;;;;;;12.02;10.20;;;;;;;14.40;100.00;99730.91;4990561;28;20243;-41
2023/08/02 04:48:21;;;;;;;13.40;10.90;;;;;;;14.42;100.00;99729.84;4994250;28;20255;-41
2023/08/02 04:50:47;;;;;;;11.23;9.20;;;;;;;14.46;100.00;99726.94;4991958;28;20174;-39
2023/08/02 04:53:12;;;;;;;11.90;10.52;;;;;;;14.36;100.00;99724.03;4992694;28;20665;-40
2023/08/02 04:55:44;;;;;;;11.93;10.43;;;;;;;14.35;100.00;99717.78;4991891;28;20185;-41
2023/08/02 04:58:10;;;;;;;12.98;11.55;;;;;;;14.29;100.00;99711.97;4992989;28;20235;-41
2023/08/02 05:00:35;;;;;;;15.77;11.35;;;;;;;14.28;100.00;99711.13;4992625;28;20205;-39
2023/08/02 05:03:01;;;;;;;15.65;11.23;;;;;;;14.32;100.00;99715.31;4993365;28;20192;-40
2023/08/02 05:05:27;;;;;;;12.18;11.07;;;;;;;14.53;100.00;99728.22;4987813;28;20260;-40
2023/08/02 05:07:52;;;;;;;17.10;11.20;;;;;;;14.81;100.00;99722.56;4990732;28;20662;-41
2023/08/02 05:10:18;;;;;;;11.85;10.45;;;;;;;15.06;100.00;99723.41;5018507;23;20220;-41
2023/08/02 05:12:43;;;;;;;14.80;11.45;;;;;;;15.20;100.00;99723.25;5051566;28;20187;-42
2023/08/02 05:15:09;;;;;;;18.05;11.40;;;;;;;15.00;100.00;99723.91;5043716;28;20805;-44
2023/08/02 05:17:35;;;;;;;11.43;9.98;;;;;;;15.07;100.00;99722.47;5056803;28;20211;-44
2023/08/02 05:20:01;;;;;;;11.70;10.48;;;;;;;15.04;100.00;99730.78;5051491;28;20548;-41
2023/08/02 05:22:26;;;;;;;13.48;9.85;;;;;;;15.13;100.00;99732.81;5045211;28;20946;-41
2023/08/02 05:24:52;;;;;;;13.07;9.52;;;;;;;15.41;100.00;99736.97;5050254;28;20219;-43
2023/08/02 05:27:18;;;;;;;10.93;9.88;;;;;;;15.39;100.00;99724.56;5051341;28;20207;-45
2023/08/02 05:29:44;;;;;;;12.73;10.30;;;;;;;15.71;100.00;99723.94;5044072;28;20183;-44
2023/08/02 05:32:10;;;;;;;9.88;8.90;;;;;;;15.93;100.00;99723.16;5051221;28;20537;-44
2023/08/02 05:34:35;;;;;;;12.82;10.38;;;;;;;15.76;100.00;99706.41;5049158;28;20187;-44
2023/08/02 05:37:01;;;;;;;11.70;8.48;;;;;;;15.63;100.00;99711.91;5057135;28;20288;-43
2023/08/02 05:39:27;;;;;;;9.02;8.13;;;;;;;15.57;100.00;99706.97;5066301;28;20302;-45
2023/08/02 05:41:52;;;;;;;12.70;9.07;;;;;;;15.74;100.00;99699.41;5045325;28;20680;-46
2023/08/02 05:44:18;;;;;;;9.50;8.52;;;;;;;15.62;100.00;99704.75;5054298;28;20286;-43
2023/08/02 05:46:43;;;;;;;12.60;9.32;;;;;;;15.49;100.00;99697.75;5050914;28;20269;-42
2023/08/02 05:49:09;;;;;;;12.90;8.77;;;;;;;15.54;100.00;99699.09;5060182;28;20186;-45
2023/08/02 05:51:35;;;;;;;8.50;7.60;;;;;;;15.68;100.00;99689.94;5053271;28;20325;-44
2023/08/02 05:54:00;;;;;;;11.48;9.25;;;;;;;15.70;100.00;99684.41;5058793;28;20519;-43
2023/08/02 05:56:26;;;;;;;10.75;9.30;;;;;;;15.65;100.00;99680.25;5053700;28;20685;-42
2023/08/02 05:58:51;;;;;;;10.45;9.20;;;;;;;15.85;100.00;99677.81;5055709;28;20246;-45
2023/08/02 06:01:17;;;;;;;10.38;8.68;;;;;;;16.04;100.00;99691.59;5047239;28;20671;-44
2023/08/02 06:03:42;;;;;;;12.13;7.45;;;;;;;16.25;100.00;99688.19;5052065;28;20298;-41
2023/08/02 06:06:08;;;;;;;9.23;7.80;;;;;;;16.20;100.00;99675.06;5031535;28;20653;-45
2023/08/02 06:08:33;;;;;;;7.55;6.93;;;;;;;16.45;100.00;99670.34;5050434;28;20195;-43
2023/08/02 06:11:01;;;;;;;12.27;7.95;;;;;;;16.57;100.00;99668.50;5051322;28;20278;-43
2023/08/02 06:13:43;;;;;;;7.80;5.75;;;;;;;16.91;100.00;99653.06;5051626;28;20180;-44
2023/08/02 06:16:14;;;;;;;10.93;6.00;;;;;;;16.93;100.00;99642.97;5001335;28;20192;-44
2023/08/02 06:18:39;;;;;;;9.73;5.78;;;;;;;17.13;100.00;99629.63;5051313;28;20424;-44
2023/08/02 06:21:09;;;;;;;7.90;5.93;;;;;;;17.35;100.00;99621.38;5049643;28;20245;-41
2023/08/02 06:23:43;;;;;;;4.95;4.45;;;;;;;17.83;100.00;99611.88;5014380;28;20207;-43
2023/08/02 06:26:22;;;;;;;6.30;4.80;;;;;;;17.80;100.00;99598.53;5009469;28;20187;-44
2023/08/02 06:29:00;;;;;;;8.30;5.30;;;;;;;17.54;100.00;99588.16;4997375;28;20200;-42
2023/08/02 06:31:27;;;;;;;6.97;5.28;;;;;;;16.95;100.00;99581.50;5025510;28;20693;-45
2023/08/02 06:33:54;;;;;;;8.30;5.32;;;;;;;17.09;100.00;99588.41;5016937;28;20192;-44
2023/08/02 06:36:27;;;;;;;7.50;5.65;;;;;;;16.91;100.00;99590.84;5029022;28;20201;-43
2023/08/02 06:38:54;;;;;;;7.00;4.70;;;;;;;16.84;100.00;99584.25;5014876;28;20187;-41
2023/08/02 06:41:20;;;;;;;7.35;4.93;;;;;;;16.78;100.00;99584.72;5052308;28;20277;-44
2023/08/02 06:43:46;;;;;;;9.05;5.65;;;;;;;16.68;100.00;99584.63;5049361;28;20207;-42
2023/08/02 06:46:11;;;;;;;6.60;4.95;;;;;;;16.48;100.00;99589.84;5051503;28;20195;-43
2023/08/02 06:48:37;;;;;;;6.60;4.65;;;;;;;16.53;100.00;99583.19;5053671;28;20179;-43
2023/08/02 06:51:02;;;;;;;8.27;4.72;;;;;;;16.34;100.00;99582.03;5048984;28;20175;-43
2023/08/02 06:53:28;;;;;;;5.60;4.57;;;;;;;16.24;100.00;99583.75;5048968;28;20163;-45
2023/08/02 06:55:54;;;;;;;6.72;4.47;;;;;;;16.37;100.00;99584.47;5049254;28;20199;-43
2023/08/02 06:58:22;;;;;;;8.40;3.78;;;;;;;16.88;100.00;99577.59;5049831;28;20196;-44
2023/08/02 07:01:00;;;;;;;4.47;3.00;;;;;;;17.18;100.00;99570.53;5031681;28;20179;-44
2023/08/02 07:03:39;;;;;;;4.30;3.03;;;;;;;17.01;100.00;99580.09;5022811;28;20197;-45
2023/08/02 07:06:14;;;;;;;6.55;3.83;;;;;;;17.70;100.00;99566.00;5032834;28;20901;-45
2023/08/02 07:08:56;;;;;;;6.40;2.75;;;;;;;18.27;100.00;99558.25;5029185;28;20189;-44
2023/08/02 07:11:23;;;;;;;4.40;2.63;;;;;;;18.80;100.00;99560.63;5041146;28;20183;-44
2023/08/02 07:13:50;;;;;;;5.50;2.88;;;;;;;19.08;100.00;99561.59;5003181;28;20164;-44
2023/08/02 07:16:21;;;;;;;3.40;2.30;;;;;;;19.24;100.00;99557.44;5050030;28;20179;-45
2023/08/02 07:18:55;;;;;;;4.88;2.40;;;;;;;19.17;100.00;99548.16;5016772;28;20270;-46
2023/08/02 07:21:32;;;;;;;2.80;2.30;;;;;;;19.39;100.00;99536.13;5030203;28;20293;-41
2023/08/02 07:24:14;;;;;;;3.78;2.08;;;;;;;18.62;100.00;99533.31;5004919;28;20299;-46
2023/08/02 07:26:54;;;;;;;5.50;1.92;;;;;;;18.72;100.00;99536.03;5016056;28;20256;-42
2023/08/02 07:29:32;;;;;;;2.50;1.77;;;;;;;18.76;100.00;99536.59;5004233;28;20186;-45
2023/08/02 07:32:06;;;;;;;3.15;2.00;;;;;;;18.76;100.00;99536.59;5012771;28;20179;-45
2023/08/02 07:34:33;;;;;;;4.75;2.17;;;;;;;18.42;100.00;99526.16;5033599;28;20194;-44
2023/08/02 07:37:00;;;;;;;5.78;2.17;;;;;;;18.17;100.00;99533.84;5047526;28;20607;-43
2023/08/02 07:39:30;;;;;;;5.53;2.10;;;;;;;17.90;100.00;99537.16;5041679;28;20262;-46
2023/08/02 07:41:56;;;;;;;4.60;2.10;;;;;;;17.95;100.00;99534.03;5009769;28;20179;-45
2023/08/02 07:44:23;;;;;;;3.78;1.80;;;;;;;18.05;100.00;99535.78;5012475;28;20207;-41
2023/08/02 07:46:56;;;;;;;5.60;2.25;;;;;;;17.77;100.00;99533.81;5022944;28;20712;-43
2023/08/02 07:49:42;;;;;;;2.47;1.73;;;;;;;17.60;100.00;99533.47;5054809;28;20665;-43
2023/08/02 07:52:08;;;;;;;6.28;1.88;;;;;;;17.66;100.00;99538.31;5018725;28;20195;-42
2023/08/02 07:54:35;;;;;;;3.70;1.83;;;;;;;17.57;100.00;99536.41;5028899;28;20192;-42
2023/08/02 07:57:01;;;;;;;4.47;2.00;;;;;;;17.75;100.00;99533.94;5032123;28;20210;-42
2023/08/02 07:59:33;;;;;;;4.47;2.05;;;;;;;17.82;100.00;99537.88;5049953;28;20221;-43
2023/08/02 08:02:07;;;;;;;2.88;1.67;;;;;;;18.04;100.00;99523.25;5022812;28;20193;-42
2023/08/02 08:04:33;;;;;;;3.95;1.70;;;;;;;17.88;100.00;99520.19;5030318;28;20203;-42
2023/08/02 08:06:58;;;;;;;3.10;2.03;;;;;;;18.01;100.00;99511.81;5053809;28;20248;-42
2023/08/02 08:09:24;;;;;;;4.60;1.80;;;;;;;17.97;100.00;99518.50;5031066;28;20683;-41
2023/08/02 08:11:50;;;;;;;5.90;1.90;;;;;;;17.79;100.00;99510.13;5048672;28;20187;-43
2023/08/02 08:14:15;;;;;;;3.13;1.63;;;;;;;17.89;100.00;99511.06;5051611;28;20537;-41
2023/08/02 08:16:41;;;;;;;4.25;1.98;;;;;;;17.98;100.00;99515.66;5031326;28;20293;-41
2023/08/02 08:19:07;;;;;;;4.20;1.92;;;;;;;17.80;100.00;99514.56;5049065;28;20179;-42
2023/08/02 08:21:32;;;;;;;1.95;1.60;;;;;;;17.73;100.00;99514.25;5049013;28;20164;-41
2023/08/02 08:23:58;;;;;;;3.50;1.55;;;;;;;17.73;100.00;99500.69;5048638;28;20773;-40
2023/08/02 08:26:23;;;;;;;4.22;1.63;;;;;;;17.46;100.00;99507.56;5056267;28;20539;-41
2023/08/02 08:28:49;;;;;;;3.67;1.67;;;;;;;17.44;100.00;99514.97;5048715;28;20176;-42
2023/08/02 08:31:15;;;;;;;2.72;1.77;;;;;;;17.21;100.00;99518.88;5032628;28;20550;-41
2023/08/02 08:33:40;;;;;;;2.50;1.60;;;;;;;16.93;100.00;99517.69;5051682;28;20218;-42
2023/08/02 08:36:15;;;;;;;2.67;1.70;;;;;;;16.83;100.00;99520.28;5048778;28;20198;-41
2023/08/02 08:38:41;;;;;;;1.85;1.40;;;;;;;16.76;100.00;99525.34;5042156;28;20554;-41
2023/08/02 08:41:07;;;;;;;3.15;1.10;;;;;;;16.94;100.00;99517.53;5040251;28;20187;-41
2023/08/02 08:43:33;;;;;;;4.43;1.20;;;;;;;16.80;100.00;99525.97;5048654;28;20303;-41
2023/08/02 08:46:00;;;;;;;3.75;1.50;;;;;;;16.94;100.00;99524.78;5057522;28;20230;-43
2023/08/02 08:48:27;;;;;;;1.73;1.30;;;;;;;16.87;100.00;99522.59;5056026;28;20210;-43
2023/08/02 08:50:55;;;;;;;3.38;1.40;;;;;;;16.90;100.00;99518.78;5047511;28;20585;-44
2023/08/02 08:53:32;;;;;;;4.03;1.83;;;;;;;16.80;100.00;99507.91;5048643;28;20179;-43
2023/08/02 08:55:59;;;;;;;2.22;1.40;;;;;;;16.76;100.00;99509.09;5029769;28;20195;-43
2023/08/02 08:58:29;;;;;;;1.60;1.50;;;;;;;16.77;100.00;99526.19;5012991;28;20274;-44
2023/08/02 09:01:25;;;;;;;2.45;2.22;;;;;;;16.87;100.00;99519.03;5001896;28;20648;-43
2023/08/02 09:03:53;;;;;;;2.22;1.50;;;;;;;16.94;100.00;99512.13;5028888;28;20242;-42
2023/08/02 09:06:19;;;;;;;1.60;1.40;;;;;;;17.26;100.00;99505.78;5051417;28;20217;-44
2023/08/02 09:08:49;;;;;;;2.88;1.58;;;;;;;17.47;100.00;99508.44;5028485;28;20241;-44
2023/08/02 09:11:17;;;;;;;4.05;1.50;;;;;;;17.67;100.00;99506.69;5055736;28;20191;-46
2023/08/02 09:13:47;;;;;;;2.40;1.50;;;;;;;18.48;100.00;99496.63;5047504;28;20171;-43
2023/08/02 09:16:16;;;;;;;1.30;1.10;;;;;;;19.40;100.00;99478.09;5047450;28;20183;-45
2023/08/02 09:18:47;;;;;;;2.97;1.20;;;;;;;19.54;100.00;99473.00;5013246;28;20176;-44
2023/08/02 09:21:22;;;;;;;1.70;1.00;;;;;;;18.86;100.00;99475.91;5039420;28;20600;-42
2023/08/02 09:24:00;;;;;;;3.70;0.88;;;;;;;18.45;100.00;99475.19;5049296;28;20222;-43
2023/08/02 09:26:27;;;;;;;1.05;0.90;;;;;;;18.12;100.00;99474.59;5041692;28;20217;-43
2023/08/02 09:29:04;;;;;;;0.98;0.85;;;;;;;18.18;100.00;99472.34;5050656;28;20179;-44
2023/08/02 09:31:33;;;;;;;3.22;1.10;;;;;;;18.27;100.00;99482.31;5044772;28;20198;-41
2023/08/02 09:33:59;;;;;;;2.10;0.90;;;;;;;19.05;100.00;99474.19;5063944;28;20206;-44
2023/08/02 09:36:32;;;;;;;0.98;0.88;;;;;;;19.31;100.00;99461.66;5058117;28;20563;-45
2023/08/02 09:39:04;;;;;;;1.52;0.75;;;;;;;19.07;100.00;99445.88;5051542;28;20179;-42
2023/08/02 09:41:31;;;;;;;2.85;0.73;;;;;;;18.99;100.00;99437.59;5051684;28;20171;-45
2023/08/02 09:43:57;;;;;;;0.73;0.55;;;;;;;19.14;100.00;99419.84;5051136;28;20195;-44
2023/08/02 09:46:25;;;;;;;2.47;0.60;;;;;;;19.42;98.43;99429.91;5048140;28;20708;-44
2023/08/02 09:48:51;;;;;;;1.33;0.70;;;;;;;19.49;97.04;99423.69;5051678;28;20180;-42
2023/08/02 09:51:19;;;;;;;0.80;0.50;;;;;;;19.32;96.97;99419.91;5045853;28;20187;-45
2023/08/02 09:53:55;;;;;;;1.70;0.70;;;;;;;18.88;96.93;99426.94;5047718;28;20180;-43
2023/08/02 09:56:24;;;;;;;2.95;0.85;;;;;;;18.76;96.15;99419.91;5057628;28;20230;-41
2023/08/02 09:58:54;;;;;;;2.20;0.73;;;;;;;18.57;95.46;99418.94;5051350;28;20183;-44
2023/08/02 10:01:23;;;;;;;2.08;0.77;;;;;;;18.46;95.83;99417.25;5056138;28;20645;-44
2023/08/02 10:03:55;;;;;;;2.17;0.70;;;;;;;18.60;96.74;99406.94;5056575;28;20203;-46
2023/08/02 10:06:26;;;;;;;0.70;0.60;;;;;;;18.61;96.24;99409.53;5052630;28;20576;-43
2023/08/02 10:08:55;;;;;;;3.28;0.80;;;;;;;18.77;97.31;99414.34;5053688;28;20175;-42
2023/08/02 10:11:24;;;;;;;1.15;0.80;;;;;;;19.17;95.94;99404.25;5050387;28;20186;-44
2023/08/02 10:13:53;;;;;;;1.52;0.90;;;;;;;19.61;93.63;99402.59;5059106;28;20176;-45
2023/08/02 10:16:21;;;;;;;3.28;0.88;;;;;;;19.95;90.87;99383.00;5048393;28;20211;-45
2023/08/02 10:18:48;;;;;;;1.92;0.70;;;;;;;20.12;88.68;99362.25;5050314;28;20187;-44
2023/08/02 10:21:16;;;;;;;4.32;0.93;;;;;;;20.22;87.48;99351.28;5034610;28;20187;-46
2023/08/02 10:23:42;;;;;;;5.78;1.15;;;;;;;20.05;86.69;99367.47;5048703;28;20550;-46
2023/08/02 10:26:08;;;;;;;1.83;0.65;;;;;;;19.48;86.27;99354.09;5050949;28;20696;-45
2023/08/02 10:28:36;;;;;;;4.43;0.93;;;;;;;19.53;86.98;99351.78;5050928;28;20179;-46
2023/08/02 10:31:07;;;;;;;2.30;0.98;;;;;;;19.45;86.65;99343.50;5050533;28;20187;-45
2023/08/02 10:33:33;;;;;;;2.60;0.90;;;;;;;18.84;86.65;99344.09;5050402;28;20187;-45
2023/08/02 10:36:06;;;;;;;3.42;1.08;;;;;;;18.68;87.76;99334.69;5050563;28;20644;-43
2023/08/02 10:38:38;;;;;;;2.25;0.80;;;;;;;18.64;87.89;99340.56;5051825;28;20179;-45
2023/08/02 10:41:09;;;;;;;1.70;0.70;;;;;;;18.91;88.80;99346.09;5066801;28;20196;-45
2023/08/02 10:43:53;;;;;;;3.63;0.80;;;;;;;19.20;88.58;99350.53;5055548;28;20197;-45
2023/08/02 10:46:27;;;;;;;4.30;0.73;;;;;;;19.11;87.60;99341.41;5050002;28;20299;-45
2023/08/02 10:48:55;;;;;;;4.03;1.00;;;;;;;19.23;87.15;99328.50;5050358;28;20190;-44
2023/08/02 10:51:38;;;;;;;2.03;0.88;;;;;;;19.47;86.91;99332.50;5044013;28;20179;-45
2023/08/02 10:54:19;;;;;;;2.15;0.93;;;;;;;19.63;85.92;99332.66;5050446;28;20183;-45
2023/08/02 10:57:09;;;;;;;4.00;0.80;;;;;;;19.54;85.31;99328.16;5049833;28;20203;-42
2023/08/02 10:59:34;;;;;;;1.67;0.80;;;;;;;19.35;83.81;99321.88;5032523;28;20686;-42
2023/08/02 11:02:08;;;;;;;1.38;0.93;;;;;;;19.24;83.71;99316.63;5048996;28;20233;-45
2023/08/02 11:04:37;;;;;;;2.55;1.00;;;;;;;19.28;83.95;99315.31;5045814;28;20252;-44
2023/08/02 11:07:18;;;;;;;2.30;1.25;;;;;;;19.12;82.91;99299.69;5049834;28;20298;-43
2023/08/02 11:09:54;;;;;;;1.52;0.95;;;;;;;19.11;83.39;99286.25;5017658;28;20261;-44
2023/08/02 11:12:21;;;;;;;2.70;1.08;;;;;;;19.41;83.60;99278.78;5053284;28;20275;-45
2023/08/02 11:14:51;;;;;;;4.13;1.38;;;;;;;19.51;83.41;99288.59;5050738;28;20672;-46
2023/08/02 11:17:19;;;;;;;1.42;1.10;;;;;;;19.66;82.93;99283.47;5048489;28;20344;-45
2023/08/02 11:19:48;;;;;;;3.42;1.13;;;;;;;19.86;83.13;99280.63;5049737;28;20183;-44
2023/08/02 11:22:14;;;;;;;4.05;1.63;;;;;;;19.69;81.87;99283.19;5049465;28;20178;-44
2023/08/02 11:24:44;;;;;;;3.08;1.38;;;;;;;19.78;80.90;99269.69;5049515;28;20214;-43
2023/08/02 11:27:17;;;;;;;2.53;1.20;;;;;;;19.65;78.88;99248.28;5058880;28;20214;-44
2023/08/02 11:30:03;;;;;;;1.88;1.30;;;;;;;19.85;78.03;99238.13;5050012;28;20175;-46
2023/08/02 11:32:32;;;;;;;1.67;1.20;;;;;;;19.95;77.95;99230.75;5043798;28;20183;-46